createdAt,value
2023-05-05T00:01:00.901Z,99528.31
2023-05-05T00:03:30.134Z,99524.91
2023-05-05T00:05:58.905Z,99530.19
2023-05-05T00:08:27.137Z,99527.69
2023-05-05T00:10:56.041Z,99533.75
2023-05-05T00:13:25.711Z,99531.97
2023-05-05T00:15:55.246Z,99528.47
2023-05-05T00:18:23.389Z,99527.59
2023-05-05T00:20:51.614Z,99527.69
2023-05-05T00:23:20.868Z,99524.28
2023-05-05T00:25:49.049Z,99526.13
2023-05-05T00:28:17.145Z,99533.25
2023-05-05T00:30:46.671Z,99536.72
2023-05-05T00:33:14.831Z,99525.34
2023-05-05T00:35:43.271Z,99521.78
2023-05-05T00:38:11.474Z,99521.78
2023-05-05T00:40:39.523Z,99524.47
2023-05-05T00:43:08.301Z,99518.38
2023-05-05T00:45:37.453Z,99520.91
2023-05-05T00:48:07.873Z,99525.41
2023-05-05T00:50:36.450Z,99525.59
2023-05-05T00:53:07.023Z,99515.91
2023-05-05T00:55:36.648Z,99522.00
2023-05-05T00:58:05.411Z,99508.94
2023-05-05T01:00:35.198Z,99514.19
2023-05-05T01:03:03.694Z,99509.06
2023-05-05T01:05:43.581Z,99517.13
2023-05-05T01:08:28.282Z,99505.94
2023-05-05T01:11:00.642Z,99510.44
2023-05-05T01:13:38.492Z,99507.81
2023-05-05T01:16:16.063Z,99507.00
2023-05-05T01:18:51.222Z,99506.25
2023-05-05T01:21:27.572Z,99509.81
2023-05-05T01:24:21.076Z,99510.72
2023-05-05T01:27:00.240Z,99511.50
2023-05-05T01:29:42.361Z,99524.59
2023-05-05T01:32:15.975Z,99515.75
2023-05-05T01:34:46.370Z,99513.97
2023-05-05T01:37:20.683Z,99506.06
2023-05-05T01:39:53.138Z,99510.44
2023-05-05T01:42:23.120Z,99501.63
2023-05-05T01:44:54.127Z,99501.63
2023-05-05T01:47:24.819Z,99492.88
2023-05-05T01:49:54.122Z,99494.66
2023-05-05T01:52:25.204Z,99503.44
2023-05-05T01:54:54.288Z,99498.19
2023-05-05T01:57:25.473Z,99498.19
2023-05-05T01:59:55.112Z,99492.91
2023-05-05T02:02:27.262Z,99501.75
2023-05-05T02:04:56.987Z,99493.91
2023-05-05T02:07:26.318Z,99500.19
2023-05-05T02:09:55.398Z,99502.03
2023-05-05T02:12:24.437Z,99507.28
2023-05-05T02:14:54.320Z,99508.16
2023-05-05T02:17:25.203Z,99509.00
2023-05-05T02:19:54.179Z,99501.91
2023-05-05T02:22:22.224Z,99503.59
2023-05-05T02:24:50.375Z,99507.94
2023-05-05T02:27:22.834Z,99504.38
2023-05-05T02:29:55.276Z,99503.44
2023-05-05T02:32:32.620Z,99506.88
2023-05-05T02:35:08.338Z,99504.25
2023-05-05T02:37:41.094Z,99510.28
2023-05-05T02:40:11.521Z,99504.16
2023-05-05T02:42:42.624Z,99506.88
2023-05-05T02:45:16.336Z,99505.19
2023-05-05T02:47:49.161Z,99505.31
2023-05-05T02:50:17.587Z,99500.25
2023-05-05T02:52:54.462Z,99507.28
2023-05-05T02:55:24.479Z,99509.00
2023-05-05T02:58:05.035Z,99502.75
2023-05-05T03:00:42.545Z,99497.50
2023-05-05T03:03:19.711Z,99504.63
2023-05-05T03:05:56.831Z,99507.28
2023-05-05T03:08:31.143Z,99517.81
2023-05-05T03:11:01.162Z,99511.63
2023-05-05T03:13:30.552Z,99509.81
2023-05-05T03:15:59.852Z,99500.97
2023-05-05T03:18:30.984Z,99511.41
2023-05-05T03:21:07.960Z,99509.72
2023-05-05T03:23:38.496Z,99506.06
2023-05-05T03:26:11.940Z,99510.50
2023-05-05T03:28:43.717Z,99505.19
2023-05-05T03:31:19.704Z,99508.72
2023-05-05T03:33:53.400Z,99507.84
2023-05-05T03:36:26.191Z,99505.31
2023-05-05T03:38:56.669Z,99508.88
2023-05-05T03:41:26.974Z,99509.00
2023-05-05T03:43:55.808Z,99508.31
2023-05-05T03:46:23.895Z,99513.00
2023-05-05T03:48:53.359Z,99498.44
2023-05-05T03:51:21.468Z,99499.50
2023-05-05T03:53:49.680Z,99497.88
2023-05-05T03:56:17.841Z,99503.34
2023-05-05T03:58:46.217Z,99496.66
2023-05-05T04:01:14.964Z,99498.63
2023-05-05T04:03:43.129Z,99490.13
2023-05-05T04:06:12.710Z,99496.25
2023-05-05T04:08:41.403Z,99485.00
2023-05-05T04:11:09.550Z,99485.06
2023-05-05T04:13:37.918Z,99483.56
2023-05-05T04:16:06.257Z,99482.88
2023-05-05T04:18:34.405Z,99490.06
2023-05-05T04:21:02.863Z,99485.78
2023-05-05T04:23:32.345Z,99489.50
2023-05-05T04:26:01.026Z,99483.47
2023-05-05T04:28:29.865Z,99478.19
2023-05-05T04:30:59.396Z,99488.66
2023-05-05T04:33:27.872Z,99488.66
2023-05-05T04:35:57.095Z,99493.06
2023-05-05T04:38:25.921Z,99487.91
2023-05-05T04:40:56.003Z,99499.28
2023-05-05T04:43:24.093Z,99498.31
2023-05-05T04:45:54.849Z,99495.81
2023-05-05T04:48:26.075Z,99498.44
2023-05-05T04:50:54.315Z,99496.72
2023-05-05T04:53:22.604Z,99493.19
2023-05-05T04:55:50.861Z,99493.19
2023-05-05T04:58:20.722Z,99502.84
2023-05-05T05:00:48.846Z,99496.03
2023-05-05T05:03:17.042Z,99507.41
2023-05-05T05:05:45.351Z,99514.22
2023-05-05T05:08:13.416Z,99504.28
2023-05-05T05:10:41.551Z,99502.44
2023-05-05T05:13:11.902Z,99509.41
2023-05-05T05:15:42.362Z,99517.22
2023-05-05T05:18:10.468Z,99518.94
2023-05-05T05:20:39.646Z,99527.59
2023-05-05T05:23:07.863Z,99526.75
2023-05-05T05:25:40.292Z,99531.16
2023-05-05T05:28:10.707Z,99533.78
2023-05-05T05:30:47.363Z,99533.63
2023-05-05T05:33:16.121Z,99540.50
2023-05-05T05:35:45.781Z,99550.91
2023-05-05T05:38:14.514Z,99550.69
2023-05-05T05:40:43.251Z,99554.75
2023-05-05T05:43:11.362Z,99553.56
2023-05-05T05:45:40.175Z,99555.97
2023-05-05T05:48:10.859Z,99554.16
2023-05-05T05:50:39.135Z,99562.81
2023-05-05T05:53:07.319Z,99560.09
2023-05-05T05:55:35.649Z,99562.66
2023-05-05T05:58:03.823Z,99572.22
2023-05-05T06:00:32.099Z,99573.06
2023-05-05T06:03:06.309Z,99576.47
2023-05-05T06:05:38.947Z,99585.16
2023-05-05T06:08:07.767Z,99577.97
2023-05-05T06:10:41.668Z,99579.53
2023-05-05T06:13:13.796Z,99586.44
2023-05-05T06:15:46.283Z,99584.59
2023-05-05T06:18:15.708Z,99584.59
2023-05-05T06:20:45.338Z,99595.00
2023-05-05T06:23:16.160Z,99590.50
2023-05-05T06:25:49.430Z,99587.72
2023-05-05T06:28:17.741Z,99592.00
2023-05-05T06:30:45.898Z,99601.69
2023-05-05T06:33:14.068Z,99590.06
2023-05-05T06:35:42.149Z,99590.88
2023-05-05T06:38:13.219Z,99595.19
2023-05-05T06:40:42.210Z,99604.66
2023-05-05T06:43:10.310Z,99598.47
2023-05-05T06:45:43.943Z,99597.31
2023-05-05T06:48:12.117Z,99605.66
2023-05-05T06:50:40.117Z,99602.66
2023-05-05T06:53:08.253Z,99609.31
2023-05-05T06:55:37.649Z,99609.03
2023-05-05T06:58:05.831Z,99611.47
2023-05-05T07:00:34.073Z,99616.72
2023-05-05T07:03:02.488Z,99611.16
2023-05-05T07:05:30.621Z,99611.00
2023-05-05T07:08:00.053Z,99615.25
2023-05-05T07:10:28.841Z,99610.53
2023-05-05T07:12:58.673Z,99609.94
2023-05-05T07:15:29.289Z,99615.06
2023-05-05T07:17:58.449Z,99602.66
2023-05-05T07:20:27.008Z,99604.81
2023-05-05T07:22:55.245Z,99607.84
2023-05-05T07:25:23.386Z,99601.16
2023-05-05T07:27:51.955Z,99614.78
2023-05-05T07:30:21.700Z,99616.19
2023-05-05T07:32:51.207Z,99623.16
2023-05-05T07:35:19.595Z,99627.41
2023-05-05T07:37:47.931Z,99627.63
2023-05-05T07:40:16.317Z,99630.03
2023-05-05T07:42:44.460Z,99632.44
2023-05-05T07:45:12.694Z,99633.13
2023-05-05T07:47:42.152Z,99631.94
2023-05-05T07:50:12.845Z,99638.78
2023-05-05T07:55:12.055Z,99635.53
2023-05-05T07:57:40.157Z,99636.91
2023-05-05T08:00:09.585Z,99635.81
2023-05-05T08:02:42.248Z,99637.59
2023-05-05T08:05:10.912Z,99638.38
2023-05-05T08:07:41.502Z,99639.34
2023-05-05T08:10:11.466Z,99650.94
2023-05-05T08:12:39.757Z,99654.69
2023-05-05T08:15:08.777Z,99637.47
2023-05-05T08:17:57.262Z,99644.75
2023-05-05T08:20:29.545Z,99642.22
2023-05-05T08:22:57.717Z,99652.25
2023-05-05T08:25:26.936Z,99654.84
2023-05-05T08:27:55.725Z,99652.69
2023-05-05T08:30:24.203Z,99641.22
2023-05-05T08:32:52.913Z,99644.16
2023-05-05T08:35:22.550Z,99648.59
2023-05-05T08:37:52.309Z,99648.91
2023-05-05T08:40:22.860Z,99642.16
2023-05-05T08:42:51.114Z,99648.91
2023-05-05T08:45:19.153Z,99643.22
2023-05-05T08:47:47.395Z,99657.28
2023-05-05T08:50:17.651Z,99656.56
2023-05-05T08:52:55.010Z,99666.13
2023-05-05T08:55:25.619Z,99659.72
2023-05-05T08:57:56.434Z,99658.97
2023-05-05T09:00:26.564Z,99654.97
2023-05-05T09:02:57.255Z,99661.53
2023-05-05T09:05:25.748Z,99666.19
2023-05-05T09:07:55.297Z,99658.13
2023-05-05T09:10:23.541Z,99654.34
2023-05-05T09:12:52.036Z,99658.97
2023-05-05T09:15:20.173Z,99659.81
2023-05-05T09:17:48.575Z,99655.91
2023-05-05T09:20:16.953Z,99663.75
2023-05-05T09:22:46.701Z,99650.28
2023-05-05T09:25:17.232Z,99651.41
2023-05-05T09:27:47.000Z,99652.81
2023-05-05T09:30:17.675Z,99650.59
2023-05-05T09:32:47.425Z,99649.75
2023-05-05T09:35:16.747Z,99656.84
2023-05-05T09:37:45.294Z,99656.75
2023-05-05T09:40:15.588Z,99656.28
2023-05-05T09:42:45.730Z,99651.34
2023-05-05T09:45:32.199Z,99645.47
2023-05-05T09:48:00.969Z,99640.66
2023-05-05T09:50:31.153Z,99647.19
2023-05-05T09:53:01.078Z,99644.25
2023-05-05T09:55:31.079Z,99638.44
2023-05-05T09:58:19.496Z,99634.72
2023-05-05T10:00:48.043Z,99640.50
2023-05-05T10:03:16.146Z,99633.94
2023-05-05T10:05:51.810Z,99636.81
2023-05-05T10:08:21.905Z,99638.53
2023-05-05T10:10:53.253Z,99633.53
2023-05-05T10:13:24.233Z,99629.06
2023-05-05T10:15:53.967Z,99640.09
2023-05-05T10:18:24.361Z,99638.56
2023-05-05T10:20:58.471Z,99642.19
2023-05-05T10:23:34.445Z,99629.31
2023-05-05T10:26:06.710Z,99631.16
2023-05-05T10:28:42.069Z,99613.81
2023-05-05T10:31:25.915Z,99617.81
2023-05-05T10:34:01.267Z,99607.59
2023-05-05T10:36:31.737Z,99607.75
2023-05-05T10:39:01.757Z,99608.16
2023-05-05T10:41:30.955Z,99608.13
2023-05-05T10:44:03.637Z,99621.84
2023-05-05T10:46:33.167Z,99614.13
2023-05-05T10:49:11.126Z,99614.72
2023-05-05T10:51:48.180Z,99604.84
2023-05-05T10:54:24.461Z,99602.19
2023-05-05T10:56:54.256Z,99592.44
2023-05-05T10:59:42.959Z,99588.03
2023-05-05T11:02:26.500Z,99598.91
2023-05-05T11:05:17.852Z,99594.00
2023-05-05T11:07:47.279Z,99593.72
2023-05-05T11:10:16.898Z,99593.78
2023-05-05T11:13:22.234Z,99597.44
2023-05-05T11:15:52.594Z,99588.44
2023-05-05T11:18:39.751Z,99594.34
2023-05-05T11:21:18.192Z,99593.63
2023-05-05T11:23:48.820Z,99610.81
2023-05-05T11:26:18.079Z,99596.00
2023-05-05T11:28:57.411Z,99595.38
2023-05-05T11:31:27.434Z,99591.16
2023-05-05T11:33:55.672Z,99578.00
2023-05-05T11:36:41.325Z,99577.56
2023-05-05T11:39:20.205Z,99585.69
2023-05-05T11:42:17.267Z,99592.09
2023-05-05T11:44:45.396Z,99591.13
2023-05-05T11:47:33.902Z,99589.00
2023-05-05T11:50:23.067Z,99579.81
2023-05-05T11:52:51.729Z,99578.50
2023-05-05T11:55:23.275Z,99575.06
2023-05-05T11:57:51.645Z,99574.78
2023-05-05T12:00:20.915Z,99576.59
2023-05-05T12:02:57.792Z,99571.63
2023-05-05T12:05:26.231Z,99570.19
2023-05-05T12:07:59.238Z,99563.44
2023-05-05T12:10:27.429Z,99563.13
2023-05-05T12:12:55.961Z,99550.84
2023-05-05T12:15:31.601Z,99544.31
2023-05-05T12:18:03.004Z,99549.69
2023-05-05T12:20:36.631Z,99540.34
2023-05-05T12:23:05.642Z,99530.94
2023-05-05T12:25:40.455Z,99543.34
2023-05-05T12:28:09.995Z,99557.31
2023-05-05T12:30:38.254Z,99556.03
2023-05-05T12:33:09.265Z,99557.66
2023-05-05T12:35:37.789Z,99559.78
2023-05-05T12:38:07.300Z,99559.59
2023-05-05T12:40:55.789Z,99557.22
2023-05-05T12:43:26.646Z,99562.75
2023-05-05T12:46:01.353Z,99564.56
2023-05-05T12:48:30.908Z,99582.84
2023-05-05T12:51:13.221Z,99577.91
2023-05-05T12:53:41.402Z,99583.03
2023-05-05T12:56:30.439Z,99582.41
2023-05-05T12:58:58.770Z,99578.50
2023-05-05T13:01:26.910Z,99571.38
2023-05-05T13:04:16.102Z,99556.22
2023-05-05T13:06:46.229Z,99553.63
2023-05-05T13:09:39.306Z,99566.75
2023-05-05T13:12:12.059Z,99545.16
2023-05-05T13:14:40.892Z,99539.63
2023-05-05T13:17:09.326Z,99546.47
2023-05-05T13:19:42.117Z,99550.47
2023-05-05T13:22:11.077Z,99545.81
2023-05-05T13:24:50.694Z,99550.88
2023-05-05T13:27:19.623Z,99547.22
2023-05-05T13:29:47.877Z,99549.56
2023-05-05T13:32:16.083Z,99552.91
2023-05-05T13:34:46.088Z,99557.22
2023-05-05T13:37:14.538Z,99572.75
2023-05-05T13:39:42.677Z,99578.72
2023-05-05T13:42:10.876Z,99575.53
2023-05-05T13:44:39.425Z,99571.75
2023-05-05T13:47:07.654Z,99582.38
2023-05-05T13:49:36.546Z,99573.09
2023-05-05T13:52:06.222Z,99562.31
2023-05-05T13:54:34.282Z,99567.41
2023-05-05T13:57:03.415Z,99565.03
2023-05-05T13:59:31.596Z,99561.91
2023-05-05T14:02:00.996Z,99573.53
2023-05-05T14:04:29.085Z,99567.44
2023-05-05T14:06:58.562Z,99573.78
2023-05-05T14:09:28.043Z,99562.72
2023-05-05T14:11:56.163Z,99561.88
2023-05-05T14:14:24.261Z,99561.03
2023-05-05T14:16:52.518Z,99559.13
2023-05-05T14:19:20.732Z,99558.66
2023-05-05T14:21:48.872Z,99563.22
2023-05-05T14:24:16.974Z,99561.75
2023-05-05T14:26:46.534Z,99559.28
2023-05-05T14:29:14.686Z,99563.75
2023-05-05T14:31:42.841Z,99572.16
2023-05-05T14:34:11.080Z,99569.50
2023-05-05T14:36:39.300Z,99561.78
2023-05-05T14:39:07.422Z,99556.47
2023-05-05T14:41:35.599Z,99561.09
2023-05-05T14:44:04.944Z,99553.41
2023-05-05T14:46:33.432Z,99548.81
2023-05-05T14:49:01.537Z,99540.84
2023-05-05T14:51:29.719Z,99536.22
2023-05-05T14:53:57.762Z,99525.41
2023-05-05T14:56:26.918Z,99527.38
2023-05-05T14:58:55.340Z,99519.41
2023-05-05T15:01:25.848Z,99518.53
2023-05-05T15:03:54.211Z,99514.19
2023-05-05T15:06:22.399Z,99513.75
2023-05-05T15:08:50.701Z,99504.72
2023-05-05T15:11:18.861Z,99506.50
2023-05-05T15:13:46.942Z,99507.84
2023-05-05T15:16:15.181Z,99510.88
2023-05-05T15:18:44.582Z,99515.78
2023-05-05T15:21:12.799Z,99519.19
2023-05-05T15:23:41.247Z,99527.00
2023-05-05T15:26:09.319Z,99516.75
2023-05-05T15:28:37.723Z,99520.16
2023-05-05T15:31:06.344Z,99527.00
2023-05-05T15:33:35.485Z,99522.16
2023-05-05T15:36:05.135Z,99523.75
2023-05-05T15:38:33.157Z,99508.34
2023-05-05T15:41:01.278Z,99516.09
2023-05-05T15:43:29.330Z,99514.94
2023-05-05T15:45:57.396Z,99514.94
2023-05-05T15:48:25.505Z,99516.44
2023-05-05T15:50:53.667Z,99527.47
2023-05-05T15:53:23.048Z,99530.63
2023-05-05T15:55:51.288Z,99524.91
2023-05-05T15:58:19.488Z,99534.00
2023-05-05T16:00:47.664Z,99518.09
2023-05-05T16:03:15.972Z,99526.19
2023-05-05T16:05:44.178Z,99521.72
2023-05-05T16:08:12.274Z,99523.22
2023-05-05T16:10:41.867Z,99525.66
2023-05-05T16:13:10.056Z,99518.66
2023-05-05T16:15:38.291Z,99522.28
2023-05-05T16:18:06.541Z,99518.75
2023-05-05T16:20:34.760Z,99514.72
2023-05-05T16:23:03.063Z,99515.38
2023-05-05T16:25:31.209Z,99507.50
2023-05-05T16:28:01.807Z,99511.88
2023-05-05T16:30:30.386Z,99502.41
2023-05-05T16:32:58.591Z,99503.53
2023-05-05T16:35:26.816Z,99514.19
2023-05-05T16:37:55.053Z,99508.47
2023-05-05T16:40:23.295Z,99506.41
2023-05-05T16:42:51.348Z,99523.75
2023-05-05T16:45:20.820Z,99513.78
2023-05-05T16:47:49.028Z,99516.25
2023-05-05T16:50:17.790Z,99517.28
2023-05-05T16:52:46.063Z,99522.59
2023-05-05T16:55:14.441Z,99514.31
2023-05-05T16:57:42.584Z,99524.94
2023-05-05T17:00:12.245Z,99520.56
2023-05-05T17:02:41.589Z,99523.97
2023-05-05T17:05:10.818Z,99518.97
2023-05-05T17:07:39.448Z,99522.56
2023-05-05T17:10:08.818Z,99524.56
2023-05-05T17:12:37.191Z,99518.09
2023-05-05T17:15:06.997Z,99517.94
2023-05-05T17:17:35.387Z,99511.75
2023-05-05T17:20:05.348Z,99516.94
2023-05-05T17:22:33.481Z,99521.81
2023-05-05T17:25:01.649Z,99521.13
2023-05-05T17:27:29.796Z,99513.06
2023-05-05T17:29:58.123Z,99519.75
2023-05-05T17:32:26.646Z,99530.47
2023-05-05T17:34:54.785Z,99528.88
2023-05-05T17:37:24.144Z,99525.66
2023-05-05T17:39:52.350Z,99521.59
2023-05-05T17:42:22.974Z,99525.59
2023-05-05T17:44:51.157Z,99532.50
2023-05-05T17:47:22.283Z,99530.56
2023-05-05T17:49:50.617Z,99527.50
2023-05-05T17:52:18.718Z,99535.94
2023-05-05T17:54:48.823Z,99547.00
2023-05-05T17:57:18.314Z,99540.22
2023-05-05T17:59:46.431Z,99544.81
2023-05-05T18:02:14.465Z,99545.09
2023-05-05T18:04:42.729Z,99547.69
2023-05-05T18:07:12.265Z,99538.31
2023-05-05T18:09:40.496Z,99538.47
2023-05-05T18:12:10.039Z,99547.38
2023-05-05T18:14:38.242Z,99548.91
2023-05-05T18:17:06.383Z,99551.06
2023-05-05T18:19:34.500Z,99551.91
2023-05-05T18:22:02.611Z,99549.53
2023-05-05T18:24:31.818Z,99551.44
2023-05-05T18:26:59.897Z,99554.94
2023-05-05T18:29:29.422Z,99560.25
2023-05-05T18:31:57.589Z,99558.81
2023-05-05T18:34:26.272Z,99562.88
2023-05-05T18:36:55.316Z,99564.34
2023-05-05T18:39:23.460Z,99563.00
2023-05-05T18:41:51.586Z,99567.56
2023-05-05T18:44:20.103Z,99566.13
2023-05-05T18:46:52.473Z,99575.84
2023-05-05T18:49:23.941Z,99572.81
2023-05-05T18:51:54.967Z,99567.84
2023-05-05T18:54:23.427Z,99574.19
2023-05-05T18:56:53.087Z,99579.72
2023-05-05T18:59:22.624Z,99581.00
2023-05-05T19:01:53.145Z,99586.25
2023-05-05T19:04:30.710Z,99580.03
2023-05-05T19:06:59.930Z,99585.31
2023-05-05T19:09:28.497Z,99593.16
2023-05-05T19:11:56.857Z,99593.81
2023-05-05T19:14:25.016Z,99586.41
2023-05-05T19:16:55.975Z,99599.94
2023-05-05T19:19:24.297Z,99591.59
2023-05-05T19:21:52.614Z,99605.88
2023-05-05T19:24:20.791Z,99608.75
2023-05-05T19:26:48.896Z,99608.06
2023-05-05T19:29:17.057Z,99611.97
2023-05-05T19:31:45.344Z,99605.56
2023-05-05T19:34:14.842Z,99611.16
2023-05-05T19:36:43.220Z,99605.44
2023-05-05T19:39:13.075Z,99616.41
2023-05-05T19:41:43.215Z,99624.91
2023-05-05T19:44:11.456Z,99622.22
2023-05-05T19:46:39.609Z,99635.16
2023-05-05T19:49:07.835Z,99631.19
2023-05-05T19:51:37.371Z,99633.34
2023-05-05T19:54:06.118Z,99634.50
2023-05-05T19:56:35.071Z,99639.22
2023-05-05T19:59:06.197Z,99645.44
2023-05-05T20:01:35.026Z,99646.50
2023-05-05T20:04:03.958Z,99644.78
2023-05-05T20:06:33.267Z,99651.88
2023-05-05T20:09:02.857Z,99651.03
2023-05-05T20:11:31.513Z,99650.19
2023-05-05T20:14:00.166Z,99667.56
2023-05-05T20:16:28.362Z,99660.31
2023-05-05T20:18:57.160Z,99664.28
2023-05-05T20:21:27.145Z,99666.53
2023-05-05T20:23:57.049Z,99655.84
2023-05-05T20:26:27.026Z,99663.69
2023-05-05T20:28:56.158Z,99665.38
2023-05-05T20:31:24.272Z,99664.38
2023-05-05T20:33:52.969Z,99659.09
2023-05-05T20:36:21.188Z,99657.25
2023-05-05T20:38:49.531Z,99665.78
2023-05-05T20:41:17.665Z,99670.91
2023-05-05T20:43:47.032Z,99666.34
2023-05-05T20:46:15.319Z,99663.63
2023-05-05T20:48:43.851Z,99665.34
2023-05-05T20:51:12.013Z,99674.19
2023-05-05T20:53:40.090Z,99665.47
2023-05-05T20:56:09.117Z,99670.75
2023-05-05T20:58:37.564Z,99669.91
2023-05-05T21:01:07.279Z,99671.69
2023-05-05T21:03:37.535Z,99668.97
2023-05-05T21:06:06.175Z,99657.44
2023-05-05T21:08:34.455Z,99653.94
2023-05-05T21:11:02.568Z,99666.19
2023-05-05T21:13:30.663Z,99661.78
2023-05-05T21:16:02.459Z,99663.47
2023-05-05T21:18:32.900Z,99658.19
2023-05-05T21:21:01.318Z,99659.06
2023-05-05T21:23:29.417Z,99661.78
2023-05-05T21:25:57.569Z,99659.28
2023-05-05T21:28:25.597Z,99659.59
2023-05-05T21:33:24.793Z,99664.38
2023-05-05T21:35:54.258Z,99662.84
2023-05-05T21:38:22.440Z,99662.13
2023-05-05T21:40:50.486Z,99668.31
2023-05-05T21:43:18.670Z,99663.25
2023-05-05T21:45:46.704Z,99662.56
2023-05-05T21:48:14.783Z,99654.75
2023-05-05T21:50:43.104Z,99665.28
2023-05-05T21:53:12.483Z,99668.81
2023-05-05T21:55:40.500Z,99667.13
2023-05-05T21:58:09.596Z,99661.84
2023-05-05T22:00:37.797Z,99666.34
2023-05-05T22:03:06.076Z,99672.56
2023-05-05T22:05:34.184Z,99665.59
2023-05-05T22:08:02.340Z,99668.34
2023-05-05T22:10:31.756Z,99654.25
2023-05-05T22:12:59.956Z,99653.34
2023-05-05T22:15:32.810Z,99659.47
2023-05-05T22:18:07.492Z,99656.88
2023-05-05T22:20:35.906Z,99655.16
2023-05-05T22:23:03.988Z,99664.00
2023-05-05T22:25:33.360Z,99658.91
2023-05-05T22:28:01.517Z,99651.00
2023-05-05T22:30:29.563Z,99651.88
2023-05-05T22:32:57.873Z,99645.75
2023-05-05T22:35:26.058Z,99650.28
2023-05-05T22:37:54.259Z,99653.84
2023-05-05T22:40:22.369Z,99643.28
2023-05-05T22:42:51.827Z,99642.44
2023-05-05T22:45:19.969Z,99644.31
2023-05-05T22:47:48.172Z,99630.97
2023-05-05T22:50:16.447Z,99640.56
2023-05-05T22:52:44.637Z,99638.78
2023-05-05T22:55:14.699Z,99644.06
2023-05-05T22:57:43.392Z,99642.38
2023-05-05T23:00:14.643Z,99645.06
2023-05-05T23:02:42.850Z,99646.88
2023-05-05T23:05:11.638Z,99641.66
2023-05-05T23:07:39.976Z,99647.91
2023-05-05T23:10:08.722Z,99649.88
2023-05-05T23:12:36.888Z,99654.34
2023-05-05T23:15:05.639Z,99652.63
2023-05-05T23:17:35.120Z,99647.34
2023-05-05T23:20:04.193Z,99642.09
2023-05-05T23:22:32.312Z,99652.78
2023-05-05T23:25:00.498Z,99641.53
2023-05-05T23:27:28.556Z,99639.91
2023-05-05T23:29:56.581Z,99650.50
2023-05-05T23:32:24.733Z,99640.97
2023-05-05T23:34:54.123Z,99647.16
2023-05-05T23:37:23.019Z,99650.56
2023-05-05T23:39:51.068Z,99646.16
2023-05-05T23:42:19.186Z,99647.94
2023-05-05T23:44:47.189Z,99646.22
2023-05-05T23:47:15.421Z,99647.22
2023-05-05T23:49:43.477Z,99650.84
2023-05-05T23:52:13.879Z,99651.00
2023-05-05T23:54:42.193Z,99644.09
2023-05-05T23:57:10.199Z,99644.31
2023-05-05T23:59:38.285Z,99638.41
